Terminal Aerodrome Forecast
Issued by NWS Duluth, MN

Home | Current Version | Previous Version | Text Only | Print | Product List | Glossary On
Versions: 1 2 3 4 5 6 7 8 9 10 11 12 13 14 15 16 17 18 19 20 21 22
000
FTUS43 KDLH 022339
TAFINL
TAF
KINL 022339Z 0300/0324 31013G21KT P6SM BKN070
     FM030200 31007KT P6SM BKN080
     FM030900 29006KT P6SM BKN025 OVC040
     FM031400 30010KT P6SM VCSH OVC030
     FM031600 31011G17KT P6SM VCSH SCT030 BKN040=

USA.gov is the U.S. government's official web portal to all federal, state and local government web resources and services.